createdAt,value
2016-07-05T00:01:48.118Z,18.35
2016-07-05T00:06:48.115Z,18.29
2016-07-05T00:11:48.097Z,18.23
2016-07-05T00:16:48.080Z,18.14
2016-07-05T00:21:48.060Z,18.21
2016-07-05T00:26:47.420Z,18.05
2016-07-05T00:31:48.017Z,18.02
2016-07-05T00:36:47.399Z,18.03
2016-07-05T00:41:47.990Z,17.92
2016-07-05T00:46:47.361Z,18.03
2016-07-05T00:51:47.329Z,17.96
2016-07-05T00:56:47.930Z,17.88
2016-07-05T01:01:47.291Z,17.92
2016-07-05T01:06:47.274Z,17.96
2016-07-05T01:11:47.849Z,18.02
2016-07-05T01:16:47.822Z,17.99
2016-07-05T01:21:47.811Z,18.02
2016-07-05T01:26:47.786Z,18.05
2016-07-05T01:31:47.770Z,18.08
2016-07-05T01:36:46.543Z,18.19
2016-07-05T01:41:47.743Z,18.08
2016-07-05T01:46:47.723Z,18.21
2016-07-05T01:51:47.095Z,18.29
2016-07-05T01:56:47.682Z,18.26
2016-07-05T02:01:47.896Z,18.24
2016-07-05T02:06:47.732Z,18.27
2016-07-05T02:11:47.006Z,18.29
2016-07-05T02:16:46.994Z,18.34
2016-07-05T02:21:47.590Z,18.27
2016-07-05T02:26:47.552Z,18.29
2016-07-05T02:31:47.545Z,18.36
2016-07-05T02:36:47.512Z,18.31
2016-07-05T02:41:47.503Z,18.34
2016-07-05T02:46:47.494Z,18.29
2016-07-05T02:51:47.474Z,18.23
2016-07-05T02:56:47.441Z,18.39
2016-07-05T03:01:47.444Z,18.39
2016-07-05T03:06:46.803Z,18.35
2016-07-05T03:11:47.401Z,18.39
2016-07-05T03:16:47.385Z,18.39
2016-07-05T03:21:47.367Z,18.38
2016-07-05T03:26:47.347Z,18.42
2016-07-05T03:31:47.327Z,18.42
2016-07-05T03:36:47.306Z,18.39
2016-07-05T03:41:47.282Z,18.44
2016-07-05T03:46:47.270Z,18.44
2016-07-05T03:51:46.630Z,18.49
2016-07-05T03:56:47.234Z,18.54
2016-07-05T04:01:46.620Z,18.57
2016-07-05T04:06:47.203Z,18.6
2016-07-05T04:11:47.176Z,18.71
2016-07-05T04:16:46.570Z,18.76
2016-07-05T04:21:47.153Z,18.79
2016-07-05T04:26:46.532Z,18.84
2016-07-05T04:31:47.111Z,18.82
2016-07-05T04:36:47.088Z,18.96
2016-07-05T04:41:47.074Z,19.31
2016-07-05T04:46:47.076Z,19.97
2016-07-05T04:51:46.459Z,20.19
2016-07-05T04:56:47.053Z,20.22
2016-07-05T05:01:47.044Z,20.66
2016-07-05T05:06:46.428Z,20.57
2016-07-05T05:11:47.017Z,21.33
2016-07-05T05:16:46.421Z,22.02
2016-07-05T05:21:47.027Z,22.73
2016-07-05T05:26:46.422Z,23.22
2016-07-05T05:31:47.018Z,22.81
2016-07-05T05:36:46.419Z,23.06
2016-07-05T05:41:46.421Z,22.52
2016-07-05T05:46:47.023Z,22.07
2016-07-05T05:51:47.128Z,21.71
2016-07-05T05:56:47.026Z,21.36
2016-07-05T06:01:47.016Z,21.27
2016-07-05T06:06:47.024Z,21.16
2016-07-05T06:11:46.407Z,21.12
2016-07-05T06:16:46.402Z,21.06
2016-07-05T06:21:47.010Z,21.01
2016-07-05T06:26:46.377Z,20.93
2016-07-05T06:31:46.982Z,21.11
2016-07-05T06:36:46.984Z,21.38
2016-07-05T06:41:46.965Z,21.3
2016-07-05T06:46:46.960Z,21.38
2016-07-05T06:51:46.961Z,21.68
2016-07-05T06:56:46.949Z,22.3
2016-07-05T07:01:46.362Z,22.12
2016-07-05T07:06:46.344Z,22.12
2016-07-05T07:11:46.963Z,21.85
2016-07-05T07:16:46.337Z,21.77
2016-07-05T07:21:46.946Z,21.74
2016-07-05T07:26:46.333Z,21.92
2016-07-05T07:31:46.336Z,21.59
2016-07-05T07:36:46.348Z,21.56
2016-07-05T07:41:46.957Z,21.34
2016-07-05T07:46:46.953Z,21.36
2016-07-05T07:51:45.737Z,21.3
2016-07-05T07:56:46.341Z,21.27
